Terminal Aerodrome Forecast
Issued by NWS

Home | Current Version | Previous Version | Graphics & Text | Print | Product List | Glossary On
Versions: 1 2 3 4 5 6 7 8 9 10 11 12 13 14 15 16
000
FTUS43 KFGF 272327
TAFBJI
TAF
KBJI 272327Z 2800/2824 17014KT P6SM SCT200
     FM280800 15008KT P6SM BKN060
      TEMPO 2808/2810 4SM -TSRA OVC040CB
     FM281000 15009KT P6SM -TSRA OVC025CB
     FM281200 14009KT P6SM SHRA OVC015
     FM281800 17006KT P6SM OVC010=

USA.gov is the U.S. government's official web portal to all federal, state and local government web resources and services.